Time;durP1;ratioP1;P1;durP2;ratioP2;P2;SDS_P1;SDS_P2;PMS_P1;PMS_P2;Temp;Humidity;BMP_temperature;BMP_pressure;BME280_temperature;BME280_humidity;BME280_pressure;Samples;Min_cycle;Max_cycle;Signal;HPM_P1;HPM_P2
2021/12/31 00:00:41;;;;;;;6.30;2.75;;;;;;;13.00;79.12;99933.97;4955920;28;20096;-76
2021/12/31 00:03:06;;;;;;;10.43;3.63;;;;;;;13.02;79.00;99930.31;4990475;28;20031;-76
2021/12/31 00:05:32;;;;;;;16.50;4.22;;;;;;;13.03;78.62;99937.28;4989905;28;20034;-77
2021/12/31 00:07:57;;;;;;;8.88;3.83;;;;;;;13.02;79.37;99943.53;4989896;28;20038;-76
2021/12/31 00:10:22;;;;;;;10.70;3.20;;;;;;;13.02;78.95;99943.53;4989641;28;20054;-78
2021/12/31 00:12:48;;;;;;;6.57;3.25;;;;;;;13.01;78.43;99941.81;4988622;28;20035;-76
2021/12/31 00:15:13;;;;;;;9.60;3.05;;;;;;;12.99;78.85;99941.03;4988626;28;20544;-75
2021/12/31 00:17:39;;;;;;;6.97;2.50;;;;;;;13.02;79.17;99932.06;4989150;28;20565;-76
2021/12/31 00:20:09;;;;;;;6.60;3.65;;;;;;;13.03;78.39;99939.09;4989098;28;20116;-76
2021/12/31 00:23:01;;;;;;;5.22;2.85;;;;;;;13.00;78.60;99932.19;4989438;28;20397;-76
2021/12/31 00:25:26;;;;;;;8.93;2.72;;;;;;;13.00;78.88;99924.25;4988595;28;20045;-75
2021/12/31 00:27:52;;;;;;;7.95;4.15;;;;;;;13.02;78.57;99924.13;4989078;28;20042;-76
2021/12/31 00:30:18;;;;;;;5.18;2.58;;;;;;;13.05;78.26;99934.56;4991160;28;20031;-76
2021/12/31 00:32:44;;;;;;;8.32;2.92;;;;;;;13.05;78.07;99918.69;4989182;28;20074;-76
2021/12/31 00:35:09;;;;;;;6.57;2.03;;;;;;;13.07;77.82;99916.81;4988884;28;20069;-76
2021/12/31 00:37:37;;;;;;;12.13;3.20;;;;;;;13.04;77.79;99923.13;4989403;28;20034;-76
2021/12/31 00:40:05;;;;;;;6.15;2.33;;;;;;;13.05;77.59;99922.19;4988895;28;20494;-75
2021/12/31 00:42:30;;;;;;;4.18;2.60;;;;;;;13.04;77.60;99915.19;4989127;28;20146;-75
2021/12/31 00:44:56;;;;;;;6.97;3.35;;;;;;;13.03;77.10;99912.63;4989157;28;20038;-76
2021/12/31 00:47:21;;;;;;;8.60;2.63;;;;;;;13.03;77.84;99918.75;4988823;28;20035;-76
2021/12/31 00:49:47;;;;;;;4.45;2.30;;;;;;;13.06;76.70;99907.16;4988936;28;20038;-75
2021/12/31 00:52:13;;;;;;;9.20;2.75;;;;;;;13.09;76.54;99910.50;4988114;28;20210;-76
2021/12/31 00:54:39;;;;;;;6.45;2.35;;;;;;;13.11;77.03;99921.81;4988285;28;20141;-76
2021/12/31 00:57:05;;;;;;;6.18;2.78;;;;;;;13.13;76.52;99919.09;4988612;28;20486;-77
2021/12/31 00:59:35;;;;;;;9.60;2.88;;;;;;;13.13;76.81;99912.94;4988986;28;20035;-75
2021/12/31 01:02:03;;;;;;;6.18;2.72;;;;;;;13.11;76.00;99911.22;4988565;28;20531;-77
2021/12/31 01:04:30;;;;;;;6.20;2.40;;;;;;;13.10;76.02;99920.13;4971239;28;20154;-75
2021/12/31 01:06:57;;;;;;;10.30;3.28;;;;;;;13.13;76.13;99915.59;4988710;28;20072;-76
2021/12/31 01:09:23;;;;;;;7.40;2.13;;;;;;;13.14;75.76;99912.00;4988244;28;20030;-76
2021/12/31 01:11:49;;;;;;;3.63;2.15;;;;;;;13.16;76.26;99912.75;4987886;28;20138;-74
2021/12/31 01:14:26;;;;;;;3.55;2.35;;;;;;;13.13;76.08;99907.66;4988547;28;20112;-76
2021/12/31 01:16:57;;;;;;;6.22;2.40;;;;;;;13.13;75.41;99919.09;4988145;28;20034;-78
2021/12/31 01:21:54;;;;;;;5.85;2.10;;;;;;;13.14;75.55;99918.13;4988753;28;20035;-75
2021/12/31 01:24:23;;;;;;;4.03;1.90;;;;;;;13.16;75.40;99923.34;4988258;28;20033;-74
2021/12/31 01:26:48;;;;;;;7.43;2.55;;;;;;;13.16;75.91;99932.13;4989069;28;20046;-74
2021/12/31 01:29:13;;;;;;;4.88;2.00;;;;;;;13.16;75.54;99920.72;4973335;28;20042;-74
2021/12/31 01:31:39;;;;;;;6.53;2.72;;;;;;;13.15;75.91;99926.97;4992694;28;20513;-75
2021/12/31 01:34:04;;;;;;;5.95;2.30;;;;;;;13.16;75.67;99920.72;4997596;28;20038;-75
2021/12/31 01:36:30;;;;;;;4.72;2.50;;;;;;;13.16;75.51;99926.84;4995208;28;20088;-76
2021/12/31 01:38:55;;;;;;;3.58;2.17;;;;;;;13.17;75.29;99933.00;4976455;28;20083;-75
2021/12/31 01:41:21;;;;;;;8.15;2.70;;;;;;;13.18;75.49;99927.63;4992950;28;20034;-74
2021/12/31 01:43:46;;;;;;;6.03;2.47;;;;;;;13.18;75.18;99935.56;4992690;28;20042;-74
2021/12/31 01:46:12;;;;;;;3.90;2.15;;;;;;;13.18;74.97;99932.06;4991951;28;20043;-75
2021/12/31 01:49:01;;;;;;;7.03;2.10;;;;;;;13.18;74.83;99932.06;4991310;28;20041;-74
2021/12/31 01:51:27;;;;;;;3.05;2.05;;;;;;;13.18;75.55;99930.25;4992859;28;20092;-74
2021/12/31 01:53:53;;;;;;;5.05;1.90;;;;;;;13.15;75.15;99927.81;4974185;28;20031;-74
2021/12/31 01:56:20;;;;;;;5.22;2.50;;;;;;;13.15;75.51;99930.44;4976389;28;20030;-75
2021/12/31 01:58:53;;;;;;;5.85;2.92;;;;;;;13.17;75.58;99915.34;4994783;28;20049;-75
2021/12/31 02:01:19;;;;;;;6.43;2.65;;;;;;;13.15;75.37;99924.31;4962168;28;20129;-75
2021/12/31 02:03:45;;;;;;;5.40;2.25;;;;;;;13.14;75.17;99917.28;4991836;28;20062;-74
2021/12/31 02:06:10;;;;;;;6.38;2.33;;;;;;;13.16;75.13;99916.25;4991145;28;20078;-75
2021/12/31 02:08:35;;;;;;;6.78;2.25;;;;;;;13.13;75.60;99921.75;4991900;28;20039;-75
2021/12/31 02:11:01;;;;;;;6.32;2.30;;;;;;;13.15;75.19;99927.81;4986019;28;20049;-74
2021/12/31 02:13:28;;;;;;;3.78;2.15;;;;;;;13.15;75.34;99926.97;4991501;28;20181;-75
2021/12/31 02:15:54;;;;;;;3.28;1.85;;;;;;;13.16;75.04;99923.34;4991143;28;20541;-76
2021/12/31 02:18:19;;;;;;;5.07;2.83;;;;;;;13.15;75.73;99919.84;4974055;28;20109;-74
2021/12/31 02:20:47;;;;;;;7.20;2.30;;;;;;;13.17;75.06;99927.69;4991528;28;20561;-76
2021/12/31 02:23:15;;;;;;;3.45;2.13;;;;;;;13.15;75.03;99921.66;4991472;28;20038;-75
2021/12/31 02:25:40;;;;;;;5.63;2.60;;;;;;;13.14;75.18;99914.66;4990675;28;20398;-75
2021/12/31 02:28:06;;;;;;;3.78;1.85;;;;;;;13.10;75.15;99909.53;4991146;28;20057;-76
2021/12/31 02:30:32;;;;;;;8.93;2.03;;;;;;;13.13;75.20;99918.25;4992391;28;20525;-77
2021/12/31 02:32:59;;;;;;;2.72;1.85;;;;;;;13.16;75.22;99918.91;4992697;28;20042;-76
2021/12/31 02:35:25;;;;;;;7.57;2.45;;;;;;;13.15;75.08;99914.56;4991003;28;20044;-76
2021/12/31 02:37:50;;;;;;;6.65;2.63;;;;;;;13.13;75.09;99911.16;4991163;28;20034;-77
2021/12/31 02:40:18;;;;;;;7.22;2.25;;;;;;;13.15;74.87;99917.22;4991192;28;20502;-77
2021/12/31 02:42:45;;;;;;;7.72;2.90;;;;;;;13.16;74.93;99910.13;4991384;28;20446;-77
2021/12/31 02:45:12;;;;;;;3.17;2.00;;;;;;;13.17;74.88;99911.81;4990213;28;20046;-76
2021/12/31 02:47:43;;;;;;;4.53;2.00;;;;;;;13.18;74.78;99910.88;4990762;28;20045;-76
2021/12/31 02:50:11;;;;;;;6.07;4.20;;;;;;;13.18;73.89;99905.59;4990575;28;20038;-76
2021/12/31 02:52:37;;;;;;;2.72;1.63;;;;;;;13.22;74.38;99907.97;4990860;28;20033;-76
2021/12/31 02:55:03;;;;;;;10.48;2.72;;;;;;;13.21;74.27;99905.41;4990620;28;20061;-77
2021/12/31 02:57:28;;;;;;;3.58;2.05;;;;;;;13.16;75.16;99900.38;4990981;28;20030;-75
2021/12/31 02:59:54;;;;;;;6.47;2.55;;;;;;;13.17;74.35;99903.88;4991773;28;20045;-75
2021/12/31 03:02:24;;;;;;;6.72;2.53;;;;;;;13.16;74.91;99891.59;4991699;28;20034;-75
2021/12/31 03:04:51;;;;;;;3.42;1.80;;;;;;;13.17;75.04;99898.56;4991888;28;20039;-76
2021/12/31 03:07:18;;;;;;;5.80;2.45;;;;;;;13.14;75.11;99902.25;4990073;28;20451;-77
2021/12/31 03:09:47;;;;;;;3.47;2.10;;;;;;;13.13;74.50;99897.06;4991386;28;20108;-76
2021/12/31 03:12:14;;;;;;;6.55;1.90;;;;;;;13.14;73.98;99896.13;4990438;28;20141;-76
2021/12/31 03:14:44;;;;;;;4.53;2.53;;;;;;;13.14;73.87;99896.97;4990219;28;20035;-76
2021/12/31 03:17:10;;;;;;;4.97;2.00;;;;;;;13.11;74.43;99889.19;4990092;28;20073;-76
2021/12/31 03:19:36;;;;;;;5.25;2.00;;;;;;;13.13;74.23;99891.78;4990927;28;20062;-77
2021/12/31 03:22:03;;;;;;;2.95;1.88;;;;;;;13.13;73.94;99878.53;4990413;28;20076;-80
2021/12/31 03:24:28;;;;;;;8.40;4.00;;;;;;;13.08;74.08;99881.44;4989990;28;20378;-76
2021/12/31 03:26:53;;;;;;;6.25;2.45;;;;;;;13.01;74.74;99880.94;4989803;28;20038;-77
2021/12/31 03:29:19;;;;;;;6.30;2.20;;;;;;;12.98;74.19;99883.78;4990284;28;20495;-77
2021/12/31 03:31:44;;;;;;;4.63;2.22;;;;;;;12.95;74.20;99880.47;4972310;28;20097;-77
2021/12/31 03:34:10;;;;;;;3.22;1.85;;;;;;;12.91;74.37;99877.13;4989602;28;20403;-76
2021/12/31 03:36:37;;;;;;;12.77;2.25;;;;;;;12.86;74.29;99884.47;4998697;28;20439;-77
2021/12/31 03:39:03;;;;;;;2.33;1.52;;;;;;;12.84;74.91;99887.19;4983418;28;20038;-77
2021/12/31 03:41:28;;;;;;;4.40;1.60;;;;;;;12.80;75.17;99872.47;5002201;28;20034;-77
2021/12/31 03:43:54;;;;;;;6.90;2.03;;;;;;;12.78;74.74;99876.97;4983425;28;20102;-76
2021/12/31 03:46:19;;;;;;;6.10;1.98;;;;;;;12.75;75.29;99881.56;4985917;28;20043;-76
2021/12/31 03:48:45;;;;;;;10.40;2.92;;;;;;;12.71;75.17;99865.03;5005905;28;20038;-76
2021/12/31 03:51:10;;;;;;;4.65;1.40;;;;;;;12.65;75.09;99874.19;4996711;28;20046;-77
2021/12/31 03:53:35;;;;;;;6.50;1.90;;;;;;;12.62;75.28;99862.91;4990287;28;20039;-77
2021/12/31 03:56:01;;;;;;;5.88;2.42;;;;;;;12.58;75.46;99869.31;4988643;28;20439;-77
2021/12/31 03:58:26;;;;;;;3.70;1.70;;;;;;;12.51;75.35;99866.16;4972217;28;20030;-77
2021/12/31 04:00:51;;;;;;;3.72;1.52;;;;;;;12.49;75.59;99865.41;4990778;28;20125;-76
2021/12/31 04:03:18;;;;;;;4.22;1.95;;;;;;;12.46;75.33;99865.56;4975111;28;20451;-75
2021/12/31 04:05:43;;;;;;;10.95;2.30;;;;;;;12.43;76.34;99866.59;4991485;28;20088;-75
2021/12/31 04:08:09;;;;;;;3.28;1.80;;;;;;;12.40;76.44;99872.06;4989980;28;20414;-76
2021/12/31 04:10:35;;;;;;;4.20;1.70;;;;;;;12.39;76.21;99866.84;4990184;28;20035;-75
2021/12/31 04:13:00;;;;;;;3.55;1.80;;;;;;;12.38;76.21;99876.56;4988843;28;20446;-75
2021/12/31 04:15:26;;;;;;;3.90;2.03;;;;;;;12.36;76.25;99869.66;4988727;28;20042;-75
2021/12/31 04:17:51;;;;;;;2.58;1.50;;;;;;;12.32;75.91;99860.19;4989538;28;20030;-75
2021/12/31 04:20:31;;;;;;;4.05;1.80;;;;;;;12.29;76.56;99863.84;4989352;28;20035;-75
2021/12/31 04:22:58;;;;;;;2.70;1.67;;;;;;;12.27;76.27;99867.53;4988789;28;20111;-75
2021/12/31 04:25:23;;;;;;;5.07;2.38;;;;;;;12.29;76.19;99869.16;4988638;28;20061;-76
2021/12/31 04:27:49;;;;;;;9.02;2.67;;;;;;;12.31;76.18;99871.72;4972613;28;20494;-75
2021/12/31 04:30:15;;;;;;;5.55;1.90;;;;;;;12.35;75.23;99860.00;4973278;28;20069;-75
2021/12/31 04:32:42;;;;;;;5.95;2.08;;;;;;;12.36;75.20;99870.53;4991205;28;20046;-77
2021/12/31 04:35:07;;;;;;;3.47;2.05;;;;;;;12.37;75.16;99866.06;4991130;28;20042;-75
2021/12/31 04:37:33;;;;;;;2.75;1.73;;;;;;;12.36;75.13;99867.88;4991060;28;20093;-76
2021/12/31 04:39:59;;;;;;;3.22;1.55;;;;;;;12.36;75.73;99865.22;4989083;28;20085;-76
2021/12/31 04:42:24;;;;;;;8.52;1.70;;;;;;;12.36;75.30;99864.38;4988461;28;20065;-76
2021/12/31 04:44:50;;;;;;;7.20;1.85;;;;;;;12.37;75.15;99869.56;4988865;28;20173;-77
2021/12/31 04:47:15;;;;;;;3.25;1.58;;;;;;;12.37;74.78;99868.72;4988306;28;20133;-76
2021/12/31 04:49:40;;;;;;;2.75;1.70;;;;;;;12.36;74.88;99853.81;4988670;28;20054;-76
2021/12/31 04:52:06;;;;;;;7.35;1.95;;;;;;;12.32;75.05;99847.81;4971691;28;20039;-76
2021/12/31 04:54:31;;;;;;;3.75;1.70;;;;;;;12.32;74.39;99841.69;4988360;28;20061;-75
2021/12/31 04:56:58;;;;;;;5.03;1.60;;;;;;;12.32;74.53;99844.31;4971175;28;20038;-76
2021/12/31 04:59:24;;;;;;;7.38;2.10;;;;;;;12.33;74.68;99849.53;4989053;28;20031;-76
2021/12/31 05:01:50;;;;;;;2.13;1.60;;;;;;;12.35;74.47;99849.44;4988749;28;20038;-76
2021/12/31 05:04:16;;;;;;;5.53;2.08;;;;;;;12.33;74.16;99840.75;4989225;28;20042;-76
2021/12/31 05:06:42;;;;;;;2.97;1.58;;;;;;;12.32;74.60;99844.31;4988522;28;20042;-76
2021/12/31 05:09:08;;;;;;;2.13;1.42;;;;;;;12.29;74.87;99834.78;4993682;28;20053;-76
2021/12/31 05:11:33;;;;;;;4.70;2.05;;;;;;;12.27;74.53;99841.94;4994479;28;20458;-77
2021/12/31 05:13:59;;;;;;;3.38;1.70;;;;;;;12.25;74.91;99839.38;4993526;28;20034;-76
2021/12/31 05:16:24;;;;;;;3.60;1.80;;;;;;;12.25;74.75;99849.09;4994086;28;20083;-76
2021/12/31 05:18:49;;;;;;;2.72;1.58;;;;;;;12.22;74.50;99852.75;4993848;28;20037;-77
2021/12/31 05:21:15;;;;;;;3.67;1.95;;;;;;;12.17;74.53;99864.53;4992648;28;20439;-77
2021/12/31 05:23:40;;;;;;;3.45;2.35;;;;;;;12.14;75.15;99860.25;4975340;28;20062;-76
2021/12/31 05:26:05;;;;;;;2.83;1.77;;;;;;;12.11;75.49;99860.44;4992425;28;20070;-75
2021/12/31 05:28:32;;;;;;;4.03;1.50;;;;;;;12.08;75.84;99863.22;4992498;28;20039;-76
2021/12/31 05:30:58;;;;;;;7.22;2.45;;;;;;;12.05;75.26;99857.28;4992840;28;20085;-76
2021/12/31 05:33:23;;;;;;;6.40;1.90;;;;;;;12.05;75.21;99860.75;4992814;28;20038;-77
2021/12/31 05:35:49;;;;;;;3.72;1.95;;;;;;;12.02;76.03;99850.38;4991553;28;20034;-75
2021/12/31 05:38:14;;;;;;;6.85;2.53;;;;;;;11.99;75.73;99858.47;4992345;28;20061;-75
2021/12/31 05:40:40;;;;;;;5.38;2.00;;;;;;;11.96;76.13;99858.59;4975612;28;20058;-75
2021/12/31 05:43:05;;;;;;;2.65;1.65;;;;;;;11.93;75.95;99850.84;4994805;28;20053;-76
2021/12/31 05:45:30;;;;;;;3.80;1.60;;;;;;;11.94;76.06;99853.41;4993192;28;20393;-75
2021/12/31 05:47:56;;;;;;;4.35;2.45;;;;;;;11.89;75.88;99855.47;4992188;28;20077;-75
2021/12/31 05:50:28;;;;;;;4.85;1.75;;;;;;;11.86;76.29;99850.28;4991989;28;20565;-76
2021/12/31 05:52:58;;;;;;;6.07;1.85;;;;;;;11.86;76.90;99836.22;4974619;28;20445;-76
2021/12/31 05:55:24;;;;;;;10.23;2.33;;;;;;;11.80;76.63;99843.56;4990991;28;20034;-75
2021/12/31 05:57:49;;;;;;;6.05;1.90;;;;;;;11.78;76.38;99847.22;4991290;28;20097;-76
2021/12/31 06:00:15;;;;;;;6.07;2.22;;;;;;;11.76;77.05;99847.31;4991708;28;20406;-75
2021/12/31 06:02:40;;;;;;;2.80;1.88;;;;;;;11.70;76.89;99844.97;4992057;28;20121;-76
2021/12/31 06:05:06;;;;;;;5.93;2.25;;;;;;;11.67;77.24;99839.03;4991843;28;20475;-76
2021/12/31 06:07:32;;;;;;;3.38;1.80;;;;;;;11.65;77.32;99847.00;4991729;28;20045;-75
2021/12/31 06:09:57;;;;;;;4.32;1.83;;;;;;;11.63;77.23;99846.22;4991885;28;20046;-75
2021/12/31 06:12:24;;;;;;;4.35;2.45;;;;;;;11.58;77.14;99835.06;4991438;28;20088;-74
2021/12/31 06:14:50;;;;;;;9.43;2.10;;;;;;;11.56;77.78;99839.56;4989544;28;20030;-76
2021/12/31 06:17:21;;;;;;;3.03;2.13;;;;;;;11.55;77.36;99835.22;4991352;28;20029;-74
2021/12/31 06:19:47;;;;;;;5.90;2.35;;;;;;;11.53;77.75;99829.19;4991239;28;20041;-75
2021/12/31 06:22:12;;;;;;;5.00;2.53;;;;;;;11.48;78.05;99829.41;4991373;28;20034;-74
2021/12/31 06:24:38;;;;;;;4.10;2.10;;;;;;;11.48;77.94;99823.28;4991549;28;20030;-74
2021/12/31 06:27:03;;;;;;;4.20;3.05;;;;;;;11.43;78.16;99823.53;4991311;28;20066;-74
2021/12/31 06:29:29;;;;;;;2.53;1.80;;;;;;;11.41;78.08;99824.53;4973593;28;20053;-76
2021/12/31 06:31:54;;;;;;;5.82;2.00;;;;;;;11.39;77.83;99828.13;4991239;28;20037;-75
2021/12/31 06:34:19;;;;;;;4.47;2.40;;;;;;;11.38;77.77;99836.94;4990586;28;20161;-75
2021/12/31 06:36:45;;;;;;;5.38;2.28;;;;;;;11.37;78.24;99831.75;4990794;28;20557;-75
2021/12/31 06:39:10;;;;;;;7.05;3.30;;;;;;;11.35;77.78;99834.47;4991488;28;20065;-74
2021/12/31 06:41:35;;;;;;;4.15;2.17;;;;;;;11.33;77.92;99835.50;4991402;28;20122;-74
2021/12/31 06:44:01;;;;;;;5.47;2.00;;;;;;;11.31;77.94;99827.63;4991083;28;20030;-74
2021/12/31 06:46:26;;;;;;;2.88;2.20;;;;;;;11.31;78.15;99818.88;4990075;28;20499;-74
2021/12/31 06:48:51;;;;;;;4.00;2.53;;;;;;;11.29;78.18;99810.19;4991026;28;20498;-75
2021/12/31 06:51:17;;;;;;;3.75;2.60;;;;;;;11.28;77.81;99813.75;4972846;28;20054;-74
2021/12/31 06:53:42;;;;;;;3.38;1.92;;;;;;;11.27;77.92;99815.56;4990698;28;20121;-73
2021/12/31 06:56:07;;;;;;;4.25;2.35;;;;;;;11.27;78.07;99817.31;4990683;28;20038;-75
2021/12/31 06:58:33;;;;;;;4.03;2.40;;;;;;;11.26;78.27;99816.47;4990663;28;20041;-75
2021/12/31 07:00:58;;;;;;;4.25;1.98;;;;;;;11.25;77.87;99813.91;4990705;28;20492;-75
2021/12/31 07:03:24;;;;;;;5.78;1.85;;;;;;;11.26;77.83;99813.84;4972238;28;20026;-76
2021/12/31 07:05:49;;;;;;;6.13;2.83;;;;;;;11.30;77.56;99817.19;4972346;28;20057;-76
2021/12/31 07:08:15;;;;;;;3.63;2.50;;;;;;;11.29;77.79;99824.22;4973269;28;20062;-75
2021/12/31 07:10:40;;;;;;;4.88;2.35;;;;;;;11.28;77.43;99819.88;4973686;28;20030;-74
2021/12/31 07:13:10;;;;;;;3.13;1.88;;;;;;;11.28;77.70;99813.75;4991654;28;20125;-76
2021/12/31 07:15:41;;;;;;;3.97;1.95;;;;;;;11.25;78.02;99813.91;4990995;28;20064;-76
2021/12/31 07:18:07;;;;;;;4.18;1.95;;;;;;;11.25;77.35;99814.78;4991466;28;20030;-76
2021/12/31 07:20:32;;;;;;;3.83;2.10;;;;;;;11.25;77.55;99812.13;4991427;28;20027;-76
2021/12/31 07:23:07;;;;;;;4.22;2.17;;;;;;;11.25;77.27;99811.25;4990643;28;20045;-78
2021/12/31 07:25:33;;;;;;;7.05;2.03;;;;;;;11.26;77.62;99819.09;4989743;28;20049;-76
2021/12/31 07:27:58;;;;;;;4.20;2.25;;;;;;;11.30;77.11;99802.19;4989892;28;20034;-75
2021/12/31 07:30:24;;;;;;;3.90;2.50;;;;;;;11.35;76.97;99808.09;4989023;28;20044;-76
2021/12/31 07:32:49;;;;;;;8.82;2.80;;;;;;;11.38;76.71;99813.19;4989261;28;20074;-75
2021/12/31 07:35:14;;;;;;;3.03;1.90;;;;;;;11.41;76.22;99821.91;4989651;28;20065;-76
2021/12/31 07:37:40;;;;;;;3.83;2.17;;;;;;;11.40;76.66;99815.78;4990325;28;20034;-75
2021/12/31 07:40:07;;;;;;;5.35;2.15;;;;;;;11.42;76.48;99824.47;4986989;28;20026;-75
2021/12/31 07:42:32;;;;;;;4.78;2.10;;;;;;;11.45;76.09;99815.53;4990204;28;20027;-76
2021/12/31 07:44:57;;;;;;;3.08;1.92;;;;;;;11.48;75.76;99810.94;4989472;28;20097;-76
2021/12/31 07:47:23;;;;;;;5.55;1.90;;;;;;;11.48;75.85;99815.38;4990366;28;20118;-76
2021/12/31 07:49:48;;;;;;;4.88;1.98;;;;;;;11.47;76.36;99803.97;4972816;28;20030;-75
2021/12/31 07:52:13;;;;;;;3.25;2.03;;;;;;;11.48;75.85;99808.28;4972852;28;20027;-75
2021/12/31 07:54:39;;;;;;;3.13;1.95;;;;;;;11.50;75.70;99806.44;4990327;28;20106;-75
2021/12/31 07:57:04;;;;;;;6.38;2.08;;;;;;;11.56;75.13;99826.38;4989524;28;20114;-77
2021/12/31 07:59:30;;;;;;;3.30;1.95;;;;;;;11.59;75.24;99813.88;4989692;28;20125;-75
2021/12/31 08:01:55;;;;;;;5.15;2.10;;;;;;;11.61;75.29;99821.69;4972231;28;20045;-75
2021/12/31 08:04:20;;;;;;;3.95;1.90;;;;;;;11.61;74.96;99816.41;4989677;28;20041;-75
2021/12/31 08:06:46;;;;;;;2.50;1.90;;;;;;;11.66;74.57;99814.38;4989050;28;20035;-76
2021/12/31 08:09:11;;;;;;;4.80;1.98;;;;;;;11.67;74.81;99810.81;4990186;28;20042;-77
2021/12/31 08:11:37;;;;;;;3.80;2.17;;;;;;;11.69;75.01;99821.28;4989625;28;20074;-76
2021/12/31 08:14:04;;;;;;;3.53;2.03;;;;;;;11.72;74.88;99816.69;4989301;28;20532;-74
2021/12/31 08:16:29;;;;;;;2.83;1.98;;;;;;;11.72;75.13;99814.06;4972066;28;20033;-74
2021/12/31 08:18:54;;;;;;;5.22;2.45;;;;;;;11.75;74.53;99821.81;4990619;28;20035;-75
2021/12/31 08:21:20;;;;;;;8.63;2.03;;;;;;;11.78;74.50;99831.34;4972361;28;20034;-76
2021/12/31 08:23:45;;;;;;;2.83;1.65;;;;;;;11.82;74.16;99846.13;4989260;28;20034;-76
2021/12/31 08:26:11;;;;;;;3.92;1.83;;;;;;;11.81;74.46;99840.00;4989122;28;20499;-76
2021/12/31 08:28:36;;;;;;;3.90;2.03;;;;;;;11.84;74.17;99841.63;4989393;28;20403;-75
2021/12/31 08:31:01;;;;;;;3.22;2.10;;;;;;;11.88;74.03;99844.97;4988567;28;20542;-75
2021/12/31 08:33:27;;;;;;;4.28;2.30;;;;;;;11.92;73.45;99833.31;4987777;28;20391;-76
2021/12/31 08:35:53;;;;;;;3.72;1.95;;;;;;;11.96;73.86;99840.09;4988402;28;20125;-77
2021/12/31 08:38:18;;;;;;;4.70;1.85;;;;;;;11.96;73.62;99848.91;4989444;28;20057;-77
2021/12/31 08:40:44;;;;;;;3.20;2.20;;;;;;;11.96;73.64;99840.09;4988993;28;20057;-76
2021/12/31 08:43:09;;;;;;;6.25;3.15;;;;;;;11.99;73.24;99845.25;4972062;28;20065;-76
2021/12/31 08:45:35;;;;;;;3.78;2.15;;;;;;;12.02;73.59;99845.94;4970439;28;20065;-76
2021/12/31 08:48:02;;;;;;;3.80;2.33;;;;;;;12.06;73.42;99854.56;4988439;28;20042;-74
2021/12/31 08:50:28;;;;;;;2.83;1.92;;;;;;;12.10;72.80;99856.06;4988661;28;20031;-76
2021/12/31 08:52:54;;;;;;;5.90;2.30;;;;;;;12.13;73.05;99857.69;4955578;28;20486;-76
2021/12/31 08:55:20;;;;;;;2.72;1.80;;;;;;;12.13;72.88;99842.69;4985780;28;20402;-77
2021/12/31 08:57:46;;;;;;;3.03;2.17;;;;;;;12.16;73.18;99845.19;4986236;28;20034;-76
2021/12/31 09:00:12;;;;;;;2.28;1.58;;;;;;;12.18;72.74;99848.59;4987002;28;20461;-76
2021/12/31 09:02:39;;;;;;;2.20;1.70;;;;;;;12.25;72.38;99859.66;4988102;28;20037;-75
2021/12/31 09:05:06;;;;;;;2.92;1.85;;;;;;;12.27;71.82;99860.44;4970460;28;20035;-76
2021/12/31 09:07:31;;;;;;;3.50;1.65;;;;;;;12.32;72.03;99860.19;4986430;28;20057;-75
2021/12/31 09:09:57;;;;;;;3.80;1.90;;;;;;;12.32;71.95;99858.41;4987043;28;20034;-75
2021/12/31 09:12:22;;;;;;;4.82;2.22;;;;;;;12.36;71.97;99853.81;4953088;28;20093;-77
2021/12/31 09:14:47;;;;;;;3.38;1.83;;;;;;;12.40;71.58;99850.91;4985776;28;20390;-76
2021/12/31 09:17:13;;;;;;;3.67;2.03;;;;;;;12.40;71.71;99845.63;4986075;28;20130;-76
2021/12/31 09:19:38;;;;;;;3.42;2.05;;;;;;;12.45;71.75;99848.84;4969975;28;20031;-74
2021/12/31 09:22:04;;;;;;;3.15;2.00;;;;;;;12.49;70.69;99853.97;4986805;28;20039;-75
2021/12/31 09:24:30;;;;;;;3.08;2.38;;;;;;;12.53;70.97;99845.78;4987543;28;20042;-75
2021/12/31 09:26:56;;;;;;;4.35;2.45;;;;;;;12.53;70.71;99853.72;4971557;28;20046;-74
2021/12/31 09:29:23;;;;;;;7.38;3.28;;;;;;;12.60;70.65;99855.06;4991676;28;20033;-74
2021/12/31 09:31:51;;;;;;;3.72;2.63;;;;;;;12.65;70.47;99842.44;4989714;28;20064;-75
2021/12/31 09:34:17;;;;;;;3.78;2.55;;;;;;;12.68;70.63;99855.50;4986899;28;20461;-75
2021/12/31 09:36:43;;;;;;;5.93;4.43;;;;;;;12.73;70.40;99859.66;4986504;28;20053;-74
2021/12/31 09:39:08;;;;;;;4.47;2.72;;;;;;;12.80;69.51;99859.22;4986042;28;20072;-76
2021/12/31 09:41:34;;;;;;;3.20;2.90;;;;;;;12.84;69.74;99857.25;4986370;28;20039;-77
2021/12/31 09:44:00;;;;;;;4.85;2.65;;;;;;;12.90;69.34;99856.91;4986127;28;20038;-77
2021/12/31 09:46:25;;;;;;;3.08;1.92;;;;;;;12.82;69.74;99838.84;4985538;28;20038;-76
2021/12/31 09:48:51;;;;;;;2.53;2.10;;;;;;;12.88;70.06;99825.22;4986225;28;20065;-76
2021/12/31 09:51:17;;;;;;;2.55;1.40;;;;;;;12.94;69.44;99834.59;4986435;28;20454;-76
2021/12/31 09:53:43;;;;;;;2.80;2.13;;;;;;;12.98;69.13;99828.19;4988926;28;20026;-76
2021/12/31 09:56:09;;;;;;;2.97;1.83;;;;;;;13.05;68.58;99824.25;4989533;28;20181;-75
2021/12/31 09:58:35;;;;;;;1.77;1.50;;;;;;;13.43;67.65;99826.44;4989532;28;20042;-76
2021/12/31 10:01:01;;;;;;;3.15;1.50;;;;;;;14.79;63.29;99819.66;4988941;28;20042;-74
2021/12/31 10:03:32;;;;;;;3.53;1.80;;;;;;;15.70;60.28;99826.78;4989101;28;20042;-76
2021/12/31 10:06:00;;;;;;;2.63;1.50;;;;;;;16.73;57.21;99814.91;4989396;28;20026;-75
2021/12/31 10:08:31;;;;;;;2.35;1.30;;;;;;;17.68;54.75;99814.84;4989552;28;20113;-76
2021/12/31 10:11:19;;;;;;;2.08;1.60;;;;;;;17.47;54.59;99819.16;4989434;28;20133;-75
2021/12/31 10:13:55;;;;;;;2.85;1.45;;;;;;;16.71;56.27;99815.97;4989864;28;20039;-75
2021/12/31 10:16:31;;;;;;;2.10;1.38;;;;;;;15.90;58.31;99836.03;4989149;28;20491;-74
2021/12/31 10:19:07;;;;;;;2.75;1.70;;;;;;;15.56;59.63;99834.84;4990087;28;20030;-74
2021/12/31 10:21:46;;;;;;;2.28;1.50;;;;;;;15.11;61.16;99847.63;4992354;28;20137;-76
2021/12/31 10:24:33;;;;;;;3.17;1.80;;;;;;;14.76;62.31;99862.28;4993478;28;20526;-75
2021/12/31 10:27:09;;;;;;;1.83;1.60;;;;;;;14.47;63.35;99860.63;4992440;28;20100;-74
2021/12/31 10:29:51;;;;;;;3.53;1.80;;;;;;;14.32;63.87;99863.34;4992213;28;20037;-75
2021/12/31 10:32:16;;;;;;;2.63;1.75;;;;;;;14.11;64.56;99841.69;4994619;28;20105;-75
2021/12/31 10:34:42;;;;;;;2.35;1.67;;;;;;;14.06;64.85;99829.66;4992355;28;20455;-75
2021/12/31 10:37:15;;;;;;;2.13;1.50;;;;;;;13.95;64.99;99814.41;4989704;28;20041;-75
2021/12/31 10:39:40;;;;;;;1.88;1.30;;;;;;;13.91;65.40;99823.53;4990060;28;20122;-75
2021/12/31 10:42:08;;;;;;;1.90;1.50;;;;;;;13.86;65.11;99830.91;4989456;28;20816;-76
2021/12/31 10:44:53;;;;;;;2.33;1.55;;;;;;;13.85;65.32;99810.66;4988857;28;20042;-73
2021/12/31 10:47:47;;;;;;;3.58;1.67;;;;;;;13.86;65.22;99833.56;4988639;28;20125;-76
2021/12/31 10:50:20;;;;;;;2.85;1.63;;;;;;;13.79;64.62;99848.16;4988982;28;20069;-75
2021/12/31 10:52:58;;;;;;;2.75;1.80;;;;;;;13.81;64.98;99839.16;4989209;28;20030;-76
2021/12/31 10:55:29;;;;;;;4.65;1.88;;;;;;;13.78;64.61;99852.56;4987878;28;20405;-76
2021/12/31 10:58:03;;;;;;;3.58;1.65;;;;;;;13.80;64.85;99852.47;4988471;28;20523;-77
2021/12/31 11:00:32;;;;;;;5.60;1.75;;;;;;;13.77;65.14;99837.63;4988963;28;20626;-77
2021/12/31 11:02:59;;;;;;;5.15;2.42;;;;;;;13.77;65.16;99834.97;4989370;28;20073;-76
2021/12/31 11:05:24;;;;;;;2.42;1.60;;;;;;;13.79;64.73;99838.38;4969802;28;20030;-76
2021/12/31 11:07:51;;;;;;;2.20;1.40;;;;;;;13.73;64.68;99806.97;4989665;28;20517;-76
2021/12/31 11:10:24;;;;;;;2.33;1.42;;;;;;;13.74;65.37;99820.13;4989235;28;20551;-76
2021/12/31 11:12:52;;;;;;;4.07;1.83;;;;;;;13.76;65.29;99817.38;4989078;28;20093;-77
2021/12/31 11:15:17;;;;;;;2.63;1.88;;;;;;;13.78;65.28;99796.91;4971113;28;20030;-76
2021/12/31 11:17:43;;;;;;;2.40;1.73;;;;;;;13.80;65.28;99800.34;4989986;28;20084;-76
2021/12/31 11:20:10;;;;;;;4.55;2.22;;;;;;;13.81;64.90;99795.88;4973651;28;20109;-76
2021/12/31 11:22:36;;;;;;;2.45;1.90;;;;;;;13.86;64.78;99805.25;5000388;28;20088;-75
2021/12/31 11:25:31;;;;;;;3.08;1.98;;;;;;;13.89;64.83;99806.88;4981606;28;20399;-76
2021/12/31 11:27:58;;;;;;;3.45;2.20;;;;;;;13.92;64.69;99818.13;4973456;28;20093;-74
2021/12/31 11:30:23;;;;;;;2.92;1.90;;;;;;;13.92;64.64;99815.47;5000635;28;20088;-76
2021/12/31 11:32:56;;;;;;;1.98;1.73;;;;;;;13.99;64.77;99820.41;4999939;28;20042;-76
2021/12/31 11:35:29;;;;;;;4.15;2.03;;;;;;;14.09;64.07;99825.00;4997195;28;20689;-75